Time;durP1;ratioP1;P1;durP2;ratioP2;P2;SDS_P1;SDS_P2;PMS_P1;PMS_P2;Temp;Humidity;BMP_temperature;BMP_pressure;BME280_temperature;BME280_humidity;BME280_pressure;Samples;Min_cycle;Max_cycle;Signal;HPM_P1;HPM_P2
2022/04/22 00:01:48;;;;;;;23.23;14.05;;;12.80;99.90;;;;;;5090496;28;20477;-89
2022/04/22 00:04:14;;;;;;;21.38;14.25;;;12.80;99.90;;;;;;5090751;28;20059;-87
2022/04/22 00:06:39;;;;;;;24.02;14.40;;;12.80;99.90;;;;;;5091305;28;20499;-89
2022/04/22 00:09:05;;;;;;;18.35;13.50;;;12.90;99.90;;;;;;5092239;28;20465;-87
2022/04/22 00:11:32;;;;;;;19.77;13.90;;;12.80;99.90;;;;;;5092713;28;20040;-88
2022/04/22 00:13:59;;;;;;;20.33;14.07;;;12.90;99.90;;;;;;5092084;28;20024;-88
2022/04/22 00:16:27;;;;;;;20.08;14.70;;;12.90;99.90;;;;;;5090725;28;20035;-87
2022/04/22 00:18:54;;;;;;;22.92;14.93;;;12.90;99.90;;;;;;5090373;28;20412;-89
2022/04/22 00:21:20;;;;;;;18.95;14.15;;;12.90;99.90;;;;;;5090616;28;20070;-88
2022/04/22 00:23:46;;;;;;;19.25;14.88;;;12.90;99.90;;;;;;5089701;28;20059;-88
2022/04/22 00:26:12;;;;;;;18.85;13.48;;;12.90;99.90;;;;;;5090573;28;20035;-89
2022/04/22 00:28:38;;;;;;;19.25;13.90;;;12.80;99.90;;;;;;5091624;28;20021;-87
2022/04/22 00:31:04;;;;;;;21.00;14.27;;;12.90;99.90;;;;;;5091657;28;20395;-89
2022/04/22 00:33:29;;;;;;;23.23;14.70;;;12.80;99.90;;;;;;5090990;28;20024;-88
2022/04/22 00:35:55;;;;;;;23.42;14.20;;;12.90;99.90;;;;;;5091453;28;20031;-89
2022/04/22 00:38:21;;;;;;;22.98;13.88;;;12.90;99.90;;;;;;5090025;28;20028;-88
2022/04/22 00:40:46;;;;;;;19.80;14.20;;;12.90;99.90;;;;;;5091221;28;20042;-87
2022/04/22 00:43:17;;;;;;;19.63;13.45;;;12.90;99.90;;;;;;5090014;28;20031;-87
2022/04/22 00:45:43;;;;;;;22.40;14.80;;;13.00;99.90;;;;;;5089977;28;20020;-87
2022/04/22 00:48:09;;;;;;;23.00;13.82;;;12.90;99.90;;;;;;5089826;28;20024;-88
2022/04/22 00:50:35;;;;;;;22.33;14.40;;;13.00;99.90;;;;;;5090960;28;20035;-88
2022/04/22 00:53:01;;;;;;;18.42;14.40;;;12.90;99.90;;;;;;5091765;28;20107;-91
2022/04/22 00:55:28;;;;;;;24.20;15.18;;;12.70;99.90;;;;;;5089949;28;20031;-88
2022/04/22 00:57:55;;;;;;;24.23;14.55;;;12.80;99.90;;;;;;5089656;28;20039;-87
2022/04/22 01:00:20;;;;;;;27.83;14.75;;;12.80;99.90;;;;;;5089447;28;20495;-88
2022/04/22 01:02:47;;;;;;;17.80;13.88;;;12.60;99.90;;;;;;5090570;28;20020;-87
2022/04/22 01:10:41;;;;;;;20.27;14.35;;;12.70;99.90;;;;;;5090801;28;20404;-87
2022/04/22 01:13:07;;;;;;;28.55;14.38;;;12.60;99.90;;;;;;5089317;28;20024;-87
2022/04/22 01:15:37;;;;;;;22.02;14.68;;;12.70;99.90;;;;;;5089780;28;20051;-87
2022/04/22 01:18:04;;;;;;;26.60;15.02;;;12.60;99.90;;;;;;5089817;28;20508;-88
2022/04/22 01:20:30;;;;;;;20.30;15.02;;;12.60;99.90;;;;;;5090943;28;20028;-88
2022/04/22 01:22:56;;;;;;;21.33;14.73;;;12.70;99.90;;;;;;5090305;28;20073;-88
2022/04/22 01:25:21;;;;;;;27.13;15.07;;;12.60;99.90;;;;;;5090250;28;20387;-86
2022/04/22 01:27:51;;;;;;;23.05;14.60;;;12.50;99.90;;;;;;5089899;28;20020;-88
2022/04/22 01:30:21;;;;;;;25.08;14.68;;;12.70;99.90;;;;;;5089963;28;20035;-88
2022/04/22 01:32:51;;;;;;;19.30;13.93;;;12.60;99.90;;;;;;5089134;28;20020;-87
2022/04/22 01:35:18;;;;;;;24.88;15.00;;;12.40;99.90;;;;;;5088441;28;20020;-87
2022/04/22 01:37:44;;;;;;;20.63;13.90;;;12.50;99.90;;;;;;5089918;28;20081;-87
2022/04/22 01:40:11;;;;;;;24.38;14.98;;;12.50;99.90;;;;;;5090050;28;20032;-88
2022/04/22 01:42:36;;;;;;;22.60;14.80;;;12.50;99.90;;;;;;5088663;28;20028;-87
2022/04/22 01:45:03;;;;;;;20.92;14.95;;;12.50;99.90;;;;;;5089719;28;20020;-88
2022/04/22 01:47:29;;;;;;;20.10;14.63;;;12.40;99.90;;;;;;5088908;28;20020;-87
2022/04/22 01:49:55;;;;;;;22.70;14.38;;;12.40;99.90;;;;;;5088750;28;20040;-87
2022/04/22 01:52:22;;;;;;;22.23;14.40;;;12.30;99.90;;;;;;5088919;28;20024;-87
2022/04/22 01:54:50;;;;;;;21.05;14.20;;;12.30;99.90;;;;;;5088764;28;20059;-87
2022/04/22 01:57:16;;;;;;;20.65;14.00;;;12.30;99.90;;;;;;5088755;28;20115;-87
2022/04/22 01:59:44;;;;;;;20.05;15.18;;;12.20;99.90;;;;;;5088824;28;20038;-87
2022/04/22 02:02:10;;;;;;;21.20;14.40;;;12.30;99.90;;;;;;5088581;28;20035;-87
2022/04/22 02:04:36;;;;;;;23.17;14.23;;;12.20;99.90;;;;;;5089348;28;20063;-88
2022/04/22 02:07:02;;;;;;;21.65;14.02;;;12.20;99.90;;;;;;5089621;28;20028;-86
2022/04/22 02:09:28;;;;;;;24.70;14.25;;;12.20;99.90;;;;;;5088836;28;20020;-87
2022/04/22 02:11:54;;;;;;;23.90;14.93;;;12.10;99.90;;;;;;5088471;28;20020;-87
2022/04/22 02:14:20;;;;;;;20.48;14.27;;;12.00;99.90;;;;;;5089717;28;20104;-88
2022/04/22 02:16:45;;;;;;;20.02;14.57;;;12.00;99.90;;;;;;5088880;28;20049;-88
2022/04/22 02:19:11;;;;;;;21.33;14.40;;;12.00;99.90;;;;;;5088785;28;20131;-87
2022/04/22 02:21:37;;;;;;;23.20;15.13;;;12.00;99.90;;;;;;5089405;28;20111;-87
2022/04/22 02:24:03;;;;;;;21.73;14.57;;;12.00;99.90;;;;;;5090331;28;20024;-88
2022/04/22 02:26:29;;;;;;;18.15;14.40;;;12.00;99.90;;;;;;5089686;28;20024;-87
2022/04/22 02:28:54;;;;;;;19.27;14.77;;;11.90;99.90;;;;;;5088555;28;20043;-86
2022/04/22 02:31:20;;;;;;;21.83;14.50;;;11.80;99.90;;;;;;5089660;28;20027;-88
2022/04/22 02:33:46;;;;;;;20.73;14.27;;;11.90;99.90;;;;;;5089771;28;20031;-87
2022/04/22 02:36:12;;;;;;;20.75;14.32;;;11.80;99.90;;;;;;5088495;28;20028;-87
2022/04/22 02:38:38;;;;;;;19.75;14.43;;;11.70;99.90;;;;;;5089486;28;20028;-89
2022/04/22 02:46:33;;;;;;;20.83;14.18;;;11.60;99.90;;;;;;5090950;28;20072;-89
2022/04/22 02:49:00;;;;;;;22.75;14.57;;;11.60;99.90;;;;;;5092085;28;20319;-90
2022/04/22 02:51:27;;;;;;;24.10;15.02;;;11.60;99.90;;;;;;5092487;28;20137;-88
2022/04/22 02:53:53;;;;;;;23.48;14.95;;;11.60;99.90;;;;;;5092223;28;20503;-88
2022/04/22 02:56:21;;;;;;;20.10;14.48;;;11.50;99.90;;;;;;5092310;28;20043;-88
2022/04/22 02:58:47;;;;;;;21.50;14.18;;;11.60;99.90;;;;;;5091672;28;20544;-87
2022/04/22 03:01:17;;;;;;;20.65;14.63;;;11.50;99.90;;;;;;5092836;28;20062;-87
2022/04/22 03:03:46;;;;;;;22.17;14.07;;;11.50;99.90;;;;;;5091664;28;20074;-90
2022/04/22 03:06:12;;;;;;;17.35;13.65;;;11.40;99.90;;;;;;5093028;28;20365;-87
2022/04/22 03:08:38;;;;;;;19.88;14.23;;;11.50;99.90;;;;;;5092549;28;20022;-88
2022/04/22 03:11:04;;;;;;;19.58;13.80;;;11.40;99.90;;;;;;5091852;28;20114;-89
2022/04/22 03:13:30;;;;;;;21.90;13.85;;;11.40;99.90;;;;;;5091600;28;20052;-88
2022/04/22 03:15:57;;;;;;;19.33;14.38;;;11.40;99.90;;;;;;5091744;28;20110;-87
2022/04/22 03:18:23;;;;;;;20.60;14.05;;;11.40;99.90;;;;;;5091689;28;20111;-87
2022/04/22 03:20:49;;;;;;;26.63;14.15;;;11.40;99.90;;;;;;5091312;28;20124;-87
2022/04/22 03:23:15;;;;;;;22.00;14.13;;;11.30;99.90;;;;;;5092609;28;20492;-88
2022/04/22 03:25:41;;;;;;;24.70;14.75;;;11.30;99.90;;;;;;5092305;28;20400;-88
2022/04/22 03:28:07;;;;;;;22.02;14.00;;;11.30;99.90;;;;;;5091869;28;20051;-87
2022/04/22 03:30:37;;;;;;;24.27;13.63;;;11.40;99.90;;;;;;5090458;28;20031;-86
2022/04/22 03:33:03;;;;;;;18.65;13.10;;;11.30;99.90;;;;;;5091817;28;20024;-88
2022/04/22 03:35:29;;;;;;;22.70;13.45;;;11.30;99.90;;;;;;5091531;28;20032;-88
2022/04/22 03:37:56;;;;;;;23.45;13.52;;;11.30;99.90;;;;;;5091558;28;20016;-89
2022/04/22 03:40:23;;;;;;;20.48;13.40;;;11.40;99.90;;;;;;5090971;28;20032;-89
2022/04/22 03:42:49;;;;;;;25.10;13.40;;;11.40;99.90;;;;;;5092252;28;20025;-87
2022/04/22 03:45:14;;;;;;;19.52;12.57;;;11.30;99.90;;;;;;5091032;28;20369;-87
2022/04/22 03:47:40;;;;;;;19.65;12.95;;;11.20;99.90;;;;;;5091775;28;20079;-86
2022/04/22 03:50:06;;;;;;;18.88;13.43;;;11.20;99.90;;;;;;5091134;28;20031;-88
2022/04/22 03:52:32;;;;;;;21.67;13.30;;;11.20;99.90;;;;;;5091251;28;20016;-88
2022/04/22 03:54:57;;;;;;;18.38;12.00;;;11.20;99.90;;;;;;5091149;28;20024;-88
2022/04/22 04:00:08;;;;;;;17.38;12.32;;;11.20;99.90;;;;;;5091993;28;20043;-88
2022/04/22 04:02:35;;;;;;;20.23;12.50;;;11.10;99.90;;;;;;5091422;28;20024;-87
2022/04/22 04:05:01;;;;;;;21.67;12.73;;;11.10;99.90;;;;;;5091044;28;20035;-89
2022/04/22 04:07:27;;;;;;;16.17;12.27;;;11.20;99.90;;;;;;5091212;28;20024;-90
2022/04/22 04:18:05;;;;;;;29.30;12.48;;;11.00;99.90;;;;;;5092596;28;20042;-87
2022/04/22 04:23:15;;;;;;;20.85;12.15;;;11.00;99.90;;;;;;5091792;28;20034;-87
2022/04/22 04:25:42;;;;;;;16.65;12.25;;;11.00;99.90;;;;;;5091136;28;20115;-88
2022/04/22 04:28:11;;;;;;;18.73;12.60;;;11.10;99.90;;;;;;5090621;28;20115;-88
2022/04/22 04:30:40;;;;;;;17.17;12.38;;;11.10;99.90;;;;;;5090675;28;20480;-88
2022/04/22 04:33:07;;;;;;;19.85;12.48;;;11.00;99.90;;;;;;5090663;28;20123;-87
2022/04/22 04:35:46;;;;;;;19.77;11.77;;;11.10;99.90;;;;;;5090515;28;20511;-89
2022/04/22 04:38:12;;;;;;;19.15;12.30;;;11.10;99.90;;;;;;5091725;28;20115;-90
2022/04/22 04:40:41;;;;;;;21.35;12.23;;;11.10;99.90;;;;;;5091444;28;20484;-92
2022/04/22 04:43:06;;;;;;;19.50;11.27;;;11.20;99.90;;;;;;5084116;28;20031;-89
2022/04/22 04:45:33;;;;;;;18.00;11.70;;;11.20;99.90;;;;;;5095776;28;20122;-88
2022/04/22 04:47:59;;;;;;;17.17;11.60;;;11.10;99.90;;;;;;5091798;28;20083;-90
2022/04/22 04:50:25;;;;;;;20.05;11.50;;;11.20;99.90;;;;;;5064292;28;20492;-88
2022/04/22 04:52:51;;;;;;;16.23;11.73;;;11.20;99.90;;;;;;5061479;28;20035;-88
2022/04/22 04:55:16;;;;;;;24.55;12.43;;;11.40;99.90;;;;;;5066253;28;20043;-88
2022/04/22 04:57:43;;;;;;;16.80;11.45;;;11.40;99.90;;;;;;5065368;28;20035;-87
2022/04/22 05:00:10;;;;;;;20.35;11.65;;;11.40;99.90;;;;;;5061632;28;20143;-86
2022/04/22 05:02:38;;;;;;;18.65;11.10;;;11.40;99.90;;;;;;5063603;28;20034;-88
2022/04/22 05:05:05;;;;;;;19.73;11.25;;;11.40;99.90;;;;;;5063258;28;20462;-86
2022/04/22 05:07:32;;;;;;;19.13;12.10;;;11.50;99.90;;;;;;5066088;28;20033;-86
2022/04/22 05:09:58;;;;;;;18.85;11.35;;;11.40;99.90;;;;;;5065832;28;20893;-88
2022/04/22 05:12:23;;;;;;;16.02;11.23;;;11.40;99.90;;;;;;5067629;28;20570;-86
2022/04/22 05:14:49;;;;;;;20.05;11.32;;;11.40;99.90;;;;;;5062601;28;20138;-87
2022/04/22 05:17:15;;;;;;;17.17;11.48;;;11.40;99.90;;;;;;5065483;28;20119;-87
2022/04/22 05:19:40;;;;;;;15.13;10.77;;;11.40;99.90;;;;;;5066320;28;20474;-88
2022/04/22 05:22:06;;;;;;;18.75;11.05;;;11.40;99.90;;;;;;5065143;28;20032;-86
2022/04/22 05:24:32;;;;;;;19.15;10.90;;;11.40;99.90;;;;;;5064091;28;20032;-86
2022/04/22 05:26:59;;;;;;;15.88;10.68;;;11.40;99.90;;;;;;5064097;28;20058;-87
2022/04/22 05:34:54;;;;;;;15.05;10.40;;;11.50;99.90;;;;;;5066461;28;20060;-88
2022/04/22 05:37:20;;;;;;;16.23;10.38;;;11.60;99.90;;;;;;5063575;28;20123;-86
2022/04/22 05:39:46;;;;;;;17.45;10.13;;;11.60;99.90;;;;;;5066544;28;20568;-89
2022/04/22 05:42:12;;;;;;;17.27;9.88;;;11.60;99.90;;;;;;5065982;28;20040;-88
2022/04/22 05:44:38;;;;;;;14.70;9.52;;;11.70;99.90;;;;;;5067590;28;20282;-87
2022/04/22 05:47:05;;;;;;;16.52;10.25;;;11.80;99.90;;;;;;5063930;28;20391;-88
2022/04/22 05:49:31;;;;;;;14.63;10.25;;;11.80;99.90;;;;;;5065100;28;20044;-91
2022/04/22 05:51:57;;;;;;;15.80;10.32;;;11.80;99.90;;;;;;5065527;28;21177;-88
2022/04/22 05:54:22;;;;;;;16.27;10.85;;;11.90;99.90;;;;;;5061181;28;20067;-86
2022/04/22 05:56:48;;;;;;;14.50;9.90;;;11.80;99.90;;;;;;5062809;28;20504;-87
2022/04/22 05:59:14;;;;;;;16.20;10.15;;;11.90;99.90;;;;;;5063726;28;20415;-88
2022/04/22 06:01:40;;;;;;;13.35;9.85;;;12.00;99.90;;;;;;5063197;28;20091;-87
2022/04/22 06:04:06;;;;;;;15.98;9.57;;;12.00;99.90;;;;;;5064527;28;20032;-87
2022/04/22 06:06:31;;;;;;;15.48;10.07;;;12.10;99.90;;;;;;5063560;28;20033;-86
2022/04/22 06:11:41;;;;;;;13.90;9.52;;;12.10;99.90;;;;;;5064244;28;20089;-87
2022/04/22 06:14:09;;;;;;;17.15;9.68;;;12.10;99.90;;;;;;5062748;28;20028;-87
2022/04/22 06:16:35;;;;;;;12.85;9.35;;;12.10;99.90;;;;;;5063132;28;20036;-86
2022/04/22 06:19:01;;;;;;;13.13;9.65;;;12.10;99.90;;;;;;5063185;28;20531;-87
2022/04/22 06:21:29;;;;;;;12.38;9.57;;;12.10;99.90;;;;;;5066326;28;20131;-86
2022/04/22 06:23:54;;;;;;;20.38;10.07;;;12.10;99.90;;;;;;5062373;28;20029;-87
2022/04/22 06:26:20;;;;;;;15.38;9.73;;;12.00;99.90;;;;;;5065507;28;20488;-86
2022/04/22 06:28:46;;;;;;;15.30;9.05;;;12.00;99.90;;;;;;5066396;28;20395;-87
2022/04/22 06:31:12;;;;;;;17.55;9.88;;;12.10;99.90;;;;;;5064640;28;20037;-89
2022/04/22 06:33:38;;;;;;;13.70;9.57;;;12.10;99.90;;;;;;5065682;28;20033;-87
2022/04/22 06:36:07;;;;;;;16.63;9.82;;;12.10;99.90;;;;;;5067730;28;20411;-85
2022/04/22 06:38:35;;;;;;;13.88;9.43;;;12.10;99.90;;;;;;5065562;28;20028;-89
2022/04/22 06:46:29;;;;;;;12.30;8.85;;;12.40;99.90;;;;;;5068091;28;21249;-89
2022/04/22 06:48:55;;;;;;;14.70;9.43;;;12.50;99.90;;;;;;5065664;28;20488;-87
2022/04/22 06:51:38;;;;;;;18.20;9.10;;;12.50;99.90;;;;;;5066337;28;20086;-91
2022/04/22 06:54:04;;;;;;;11.80;8.25;;;12.50;99.90;;;;;;5067597;28;20146;-89
2022/04/22 06:56:36;;;;;;;12.95;8.68;;;12.50;99.90;;;;;;5069347;28;20127;-91
2022/04/22 06:59:02;;;;;;;15.75;8.77;;;12.50;99.90;;;;;;5071024;28;20048;-90
2022/04/22 07:01:31;;;;;;;11.65;8.32;;;12.60;99.90;;;;;;5071037;28;20028;-90
2022/04/22 07:03:57;;;;;;;10.65;8.38;;;12.70;99.90;;;;;;5070990;28;20029;-90
2022/04/22 07:06:24;;;;;;;15.55;8.18;;;12.70;99.90;;;;;;5066722;28;20506;-90
2022/04/22 07:08:50;;;;;;;10.82;7.90;;;12.80;99.90;;;;;;5071266;28;20032;-91
2022/04/22 07:11:26;;;;;;;13.70;8.52;;;13.00;99.90;;;;;;5069840;28;20381;-90
2022/04/22 07:13:59;;;;;;;10.13;8.13;;;13.00;99.90;;;;;;5072090;28;20032;-90
2022/04/22 07:16:25;;;;;;;14.10;8.18;;;13.10;99.90;;;;;;5071062;28;20036;-92
2022/04/22 07:18:59;;;;;;;12.27;7.78;;;13.10;99.90;;;;;;5070434;28;20028;-90
2022/04/22 07:24:20;;;;;;;18.00;8.07;;;13.30;99.90;;;;;;5067292;28;20036;-93
2022/04/22 07:26:46;;;;;;;15.57;7.95;;;13.40;99.90;;;;;;5069340;28;20032;-90
2022/04/22 07:29:13;;;;;;;12.13;8.32;;;13.50;99.90;;;;;;5069995;28;20088;-87
2022/04/22 07:31:39;;;;;;;10.75;7.40;;;13.50;99.90;;;;;;5070069;28;20032;-90
2022/04/22 07:34:05;;;;;;;10.45;7.85;;;13.60;99.90;;;;;;5069480;28;20024;-87
2022/04/22 07:36:31;;;;;;;9.68;7.10;;;13.50;99.90;;;;;;5066328;28;20127;-88
2022/04/22 07:38:58;;;;;;;10.30;7.25;;;13.60;99.90;;;;;;5070216;28;20455;-88
2022/04/22 07:41:29;;;;;;;9.40;6.60;;;13.70;99.90;;;;;;5070550;28;20098;-89
2022/04/22 07:47:02;;;;;;;11.05;7.18;;;13.70;99.90;;;;;;5067576;28;20032;-90
2022/04/22 07:49:29;;;;;;;14.85;7.80;;;13.80;99.90;;;;;;5068768;28;20043;-91
2022/04/22 07:51:55;;;;;;;17.35;7.25;;;13.60;99.90;;;;;;5070842;28;20416;-91
2022/04/22 07:54:22;;;;;;;14.18;7.30;;;13.60;99.90;;;;;;5072166;28;20494;-91
2022/04/22 07:56:48;;;;;;;12.57;7.15;;;13.80;99.90;;;;;;5074178;28;20031;-91
2022/04/22 07:59:14;;;;;;;10.73;6.38;;;13.80;99.90;;;;;;5090907;28;20175;-86
2022/04/22 08:01:40;;;;;;;12.05;6.75;;;14.00;99.90;;;;;;5090064;28;20046;-88
2022/04/22 08:04:06;;;;;;;9.40;6.13;;;14.30;99.90;;;;;;5090215;28;20020;-85
2022/04/22 08:06:32;;;;;;;9.38;6.63;;;14.50;99.90;;;;;;5091282;28;20020;-90
2022/04/22 08:08:58;;;;;;;9.38;6.93;;;14.80;99.90;;;;;;5092180;28;20080;-87
2022/04/22 08:11:24;;;;;;;10.10;6.80;;;14.90;99.90;;;;;;5092777;28;20063;-87
2022/04/22 08:13:49;;;;;;;14.60;6.80;;;14.90;99.90;;;;;;5090279;28;20115;-86
2022/04/22 08:16:15;;;;;;;11.63;6.93;;;15.00;99.90;;;;;;5091569;28;20481;-87
2022/04/22 08:18:42;;;;;;;8.43;6.25;;;14.60;99.90;;;;;;5091213;28;20028;-86
2022/04/22 08:21:08;;;;;;;9.73;6.72;;;14.60;99.90;;;;;;5091335;28;20123;-88
2022/04/22 08:23:34;;;;;;;8.75;6.03;;;14.70;99.90;;;;;;5090267;28;20024;-89
2022/04/22 08:26:00;;;;;;;11.90;6.03;;;14.80;99.90;;;;;;5091563;28;20161;-88
2022/04/22 08:28:26;;;;;;;11.18;5.95;;;14.90;99.90;;;;;;5090509;28;20100;-87
2022/04/22 08:30:52;;;;;;;12.93;7.18;;;15.00;99.90;;;;;;5091221;28;20511;-88
2022/04/22 08:33:17;;;;;;;9.18;6.60;;;15.00;99.90;;;;;;5091058;28;20028;-89
2022/04/22 08:35:43;;;;;;;8.88;6.20;;;15.00;99.90;;;;;;5090090;28;20020;-87
2022/04/22 08:38:09;;;;;;;9.13;7.03;;;15.00;99.90;;;;;;5091424;28;20095;-89
2022/04/22 08:40:38;;;;;;;10.35;7.47;;;15.10;99.90;;;;;;5092097;28;20122;-88
2022/04/22 08:43:06;;;;;;;9.70;6.95;;;15.20;99.90;;;;;;5090822;28;20031;-86
2022/04/22 08:45:33;;;;;;;14.60;6.40;;;15.20;99.90;;;;;;5090256;28;20491;-88
2022/04/22 08:50:48;;;;;;;10.55;6.82;;;15.40;99.90;;;;;;5092758;28;20051;-89
2022/04/22 08:53:21;;;;;;;10.95;6.70;;;15.40;99.90;;;;;;5092008;28;20024;-88
2022/04/22 08:55:57;;;;;;;8.45;6.22;;;15.20;99.90;;;;;;5090964;28;20028;-88
2022/04/22 08:58:25;;;;;;;7.82;6.13;;;15.60;99.90;;;;;;5090722;28;20031;-87
2022/04/22 09:00:53;;;;;;;12.98;6.70;;;15.80;99.90;;;;;;5089545;28;20039;-91
2022/04/22 09:03:20;;;;;;;10.25;6.82;;;15.90;99.90;;;;;;5089521;28;20541;-87
2022/04/22 09:05:45;;;;;;;9.23;6.38;;;16.00;99.90;;;;;;5090490;28;20101;-88
2022/04/22 09:08:12;;;;;;;9.10;6.53;;;16.10;99.90;;;;;;5089101;28;20024;-86
2022/04/22 09:10:40;;;;;;;7.68;5.85;;;16.30;99.90;;;;;;5088716;28;20465;-86
2022/04/22 09:13:14;;;;;;;12.43;6.55;;;16.30;99.90;;;;;;5088635;28;20031;-88
2022/04/22 09:15:40;;;;;;;11.02;6.30;;;16.50;99.90;;;;;;5090162;28;20141;-88
2022/04/22 09:18:41;;;;;;;11.10;6.63;;;16.50;99.90;;;;;;5092135;28;20042;-91
2022/04/22 09:21:13;;;;;;;13.43;6.15;;;15.80;99.90;;;;;;5090064;28;20126;-88
2022/04/22 09:23:48;;;;;;;12.40;6.18;;;16.10;99.90;;;;;;5089503;28;20020;-90
2022/04/22 09:26:26;;;;;;;12.15;5.63;;;16.20;99.90;;;;;;5090153;28;20053;-87
2022/04/22 09:29:00;;;;;;;11.25;5.28;;;16.40;99.90;;;;;;5088937;28;20028;-89
2022/04/22 09:31:27;;;;;;;10.13;6.38;;;16.40;99.90;;;;;;5090002;28;20036;-89
2022/04/22 09:33:54;;;;;;;8.50;5.53;;;16.40;99.90;;;;;;5089852;28;20120;-87
2022/04/22 09:44:56;;;;;;;8.95;5.70;;;16.20;98.70;;;;;;5091151;28;20094;-90
2022/04/22 09:47:27;;;;;;;8.77;5.07;;;16.20;98.40;;;;;;5089511;28;20042;-88
2022/04/22 09:49:53;;;;;;;8.13;5.10;;;16.40;99.90;;;;;;5089652;28;20036;-87
2022/04/22 09:52:25;;;;;;;10.68;5.32;;;16.70;99.90;;;;;;5090342;28;20420;-90
2022/04/22 09:54:59;;;;;;;7.13;4.63;;;16.80;98.20;;;;;;5089807;28;20038;-91
2022/04/22 09:57:25;;;;;;;8.13;4.80;;;17.00;99.90;;;;;;5093769;28;20063;-91
2022/04/22 09:59:52;;;;;;;7.38;4.88;;;17.10;99.90;;;;;;5094315;28;20036;-93
2022/04/22 10:02:49;;;;;;;7.55;4.72;;;17.00;99.90;;;;;;5094608;28;20038;-91
2022/04/22 10:05:20;;;;;;;9.98;5.28;;;17.30;99.90;;;;;;5094348;28;20036;-93
2022/04/22 10:12:06;;;;;;;7.07;4.63;;;17.60;99.90;;;;;;5027052;28;20097;-92
2022/04/22 10:14:38;;;;;;;9.05;4.50;;;17.70;97.50;;;;;;5250893;23;20052;-90
2022/04/22 10:17:07;;;;;;;5.15;4.18;;;17.70;97.60;;;;;;5097963;28;20059;-90
2022/04/22 10:19:34;;;;;;;8.68;4.60;;;17.60;97.40;;;;;;5092192;28;20434;-88
2022/04/22 10:22:07;;;;;;;5.90;4.30;;;17.80;95.20;;;;;;5078167;28;20020;-91
2022/04/22 10:24:33;;;;;;;7.43;3.92;;;17.70;91.40;;;;;;5077846;28;20057;-88
2022/04/22 10:27:03;;;;;;;8.68;4.30;;;17.50;90.00;;;;;;5080327;28;20083;-89
2022/04/22 10:29:32;;;;;;;8.82;4.20;;;17.20;92.50;;;;;;5080491;28;20097;-93
2022/04/22 10:32:02;;;;;;;6.47;4.00;;;17.40;94.20;;;;;;5080915;28;20028;-89
2022/04/22 10:34:41;;;;;;;6.40;4.15;;;17.60;94.10;;;;;;5081787;28;20105;-90
2022/04/22 10:40:20;;;;;;;6.63;4.72;;;18.00;94.30;;;;;;5105038;28;20036;-92
2022/04/22 10:42:47;;;;;;;8.10;4.10;;;18.10;93.20;;;;;;5082892;28;20056;-91
2022/04/22 10:48:07;;;;;;;10.13;4.40;;;18.20;92.70;;;;;;5107072;28;20027;-91
2022/04/22 10:50:48;;;;;;;12.35;5.10;;;17.70;89.50;;;;;;5082675;28;20484;-89
2022/04/22 10:53:26;;;;;;;7.20;5.15;;;17.70;91.40;;;;;;5080951;28;20549;-93
2022/04/22 10:56:11;;;;;;;7.90;4.72;;;17.50;90.70;;;;;;5081073;28;20048;-91
2022/04/22 10:58:37;;;;;;;9.18;4.30;;;17.60;88.50;;;;;;5078636;28;20020;-91
2022/04/22 11:01:03;;;;;;;6.80;4.55;;;17.70;93.30;;;;;;5077136;28;20040;-87
2022/04/22 11:03:37;;;;;;;6.85;4.22;;;17.90;91.50;;;;;;5072908;28;20032;-90
2022/04/22 11:06:07;;;;;;;7.93;4.30;;;18.10;92.80;;;;;;5064435;28;20036;-90
2022/04/22 11:08:57;;;;;;;6.80;4.63;;;17.80;85.60;;;;;;5082842;28;20123;-88
2022/04/22 11:11:38;;;;;;;8.70;4.50;;;17.70;86.40;;;;;;5067675;28;20198;-90
2022/04/22 11:14:25;;;;;;;4.97;3.40;;;17.80;87.80;;;;;;5063543;28;20032;-89
2022/04/22 11:16:51;;;;;;;8.45;4.15;;;17.80;85.20;;;;;;5060288;28;20044;-90
2022/04/22 11:19:20;;;;;;;6.65;3.50;;;17.40;84.60;;;;;;5061383;28;20589;-90
2022/04/22 11:21:48;;;;;;;6.07;2.88;;;17.80;84.10;;;;;;5069636;28;20377;-92
2022/04/22 11:24:21;;;;;;;4.82;3.03;;;17.80;81.90;;;;;;5075499;28;20027;-94
2022/04/22 11:26:47;;;;;;;4.78;2.90;;;17.80;75.80;;;;;;5075393;28;20032;-90
2022/04/22 11:29:15;;;;;;;5.63;2.67;;;17.60;79.70;;;;;;5074889;28;20066;-88
2022/04/22 11:31:56;;;;;;;2.88;2.40;;;17.70;84.30;;;;;;5075258;28;20111;-88
2022/04/22 11:34:46;;;;;;;3.97;2.42;;;17.90;86.90;;;;;;5075352;28;20035;-89
2022/04/22 11:37:20;;;;;;;3.08;2.08;;;17.90;71.50;;;;;;5075174;28;20107;-95
2022/04/22 11:39:49;;;;;;;4.50;2.28;;;17.90;79.20;;;;;;5076432;28;20407;-90
2022/04/22 11:42:19;;;;;;;7.68;2.13;;;18.10;79.30;;;;;;5074752;28;20028;-88
2022/04/22 11:45:16;;;;;;;;;;;;;;;;;;;;;
2022/04/22 11:47:42;;;;;;;5.15;2.40;;;18.40;76.90;;;;;;5092695;28;20024;-91
2022/04/22 11:50:23;;;;;;;6.28;2.40;;;18.40;66.20;;;;;;5075107;28;20365;-91
2022/04/22 11:52:56;;;;;;;3.00;2.38;;;18.40;68.90;;;;;;5075962;28;20035;-88
2022/04/22 11:55:25;;;;;;;7.10;2.40;;;18.20;67.90;;;;;;5091955;28;20468;-93
2022/04/22 12:06:25;;;;;;;6.78;2.22;;;18.40;64.90;;;;;;5092420;28;20058;-89
2022/04/22 12:09:02;;;;;;;7.63;2.40;;;18.50;69.80;;;;;;5073659;28;20038;-89
2022/04/22 12:11:28;;;;;;;4.70;2.53;;;18.40;65.90;;;;;;5074367;28;20028;-92
2022/04/22 12:13:55;;;;;;;6.68;2.17;;;18.50;67.90;;;;;;5074096;28;20024;-90
2022/04/22 12:16:27;;;;;;;4.75;2.17;;;18.50;66.40;;;;;;5092499;28;20119;-90
2022/04/22 12:18:56;;;;;;;8.00;2.50;;;18.50;65.80;;;;;;5073565;28;20070;-91
2022/04/22 12:21:23;;;;;;;3.25;2.28;;;18.50;63.80;;;;;;5074616;28;20032;-90
2022/04/22 12:24:02;;;;;;;11.17;2.50;;;18.50;68.50;;;;;;5074967;28;20027;-90
2022/04/22 12:26:32;;;;;;;5.63;2.47;;;18.50;63.80;;;;;;5074574;28;20712;-90
2022/04/22 12:28:58;;;;;;;6.68;2.55;;;18.40;66.20;;;;;;5073730;28;20031;-90
2022/04/22 12:31:25;;;;;;;7.95;2.40;;;18.40;64.30;;;;;;5073571;28;20024;-89
2022/04/22 12:34:01;;;;;;;3.40;2.13;;;18.30;63.60;;;;;;5091309;28;20067;-90
2022/04/22 12:36:32;;;;;;;3.05;2.13;;;18.20;65.20;;;;;;5073600;28;20053;-91
2022/04/22 12:38:59;;;;;;;5.70;2.13;;;18.50;68.50;;;;;;5073818;28;20031;-90
2022/04/22 12:41:25;;;;;;;8.95;2.40;;;18.70;68.00;;;;;;5073947;28;20062;-89
2022/04/22 12:43:53;;;;;;;5.65;1.80;;;18.60;62.80;;;;;;5074142;28;20028;-91
2022/04/22 12:52:28;;;;;;;4.68;2.10;;;18.70;65.10;;;;;;5091567;28;20027;-90
2022/04/22 12:55:04;;;;;;;2.35;2.08;;;18.90;67.00;;;;;;5072742;28;20430;-87
2022/04/22 12:57:30;;;;;;;7.70;3.00;;;18.90;62.90;;;;;;5072996;28;20032;-91
2022/04/22 12:59:56;;;;;;;3.63;2.22;;;18.80;60.30;;;;;;5073336;28;20040;-91
2022/04/22 13:02:30;;;;;;;4.68;2.28;;;19.00;66.50;;;;;;5073202;28;20024;-89
2022/04/22 13:05:36;;;;;;;6.55;2.50;;;19.20;64.20;;;;;;5073368;28;20495;-92
2022/04/22 13:08:52;;;;;;;;;;;;;;;;;;;;;
2022/04/22 13:14:33;;;;;;;5.10;2.40;;;19.10;62.60;;;;;;5050558;28;20036;-91
2022/04/22 13:20:32;;;;;;;6.00;2.55;;;18.90;61.30;;;;;;4989839;28;20085;-91
2022/04/22 13:22:57;;;;;;;6.65;2.47;;;18.60;61.20;;;;;;5008792;28;20033;-88
2022/04/22 13:25:23;;;;;;;2.65;2.10;;;18.70;62.40;;;;;;5050110;28;20040;-87
2022/04/22 13:27:51;;;;;;;6.32;2.17;;;18.70;63.50;;;;;;5072870;28;20012;-90
2022/04/22 13:30:17;;;;;;;5.30;2.20;;;18.90;65.40;;;;;;5072447;28;20133;-87
2022/04/22 13:32:43;;;;;;;8.95;2.58;;;19.20;65.40;;;;;;5072095;28;20572;-89
2022/04/22 13:35:10;;;;;;;3.70;2.58;;;19.30;63.30;;;;;;5073088;28;20020;-88
2022/04/22 13:37:36;;;;;;;7.20;2.50;;;19.40;65.20;;;;;;5072645;28;20453;-88
2022/04/22 13:40:02;;;;;;;4.68;2.42;;;19.50;65.70;;;;;;5089994;28;20504;-88
2022/04/22 13:42:27;;;;;;;4.30;2.38;;;19.70;65.80;;;;;;5072916;28;20189;-87
2022/04/22 13:53:08;;;;;;;6.90;2.93;;;19.70;57.50;;;;;;5074222;28;20048;-92
2022/04/22 13:55:40;;;;;;;5.75;2.92;;;19.50;57.30;;;;;;5074403;28;20266;-92
2022/04/22 13:58:15;;;;;;;3.45;2.70;;;19.30;58.70;;;;;;5073188;28;20024;-92
2022/04/22 14:01:21;;;;;;;3.13;2.58;;;19.30;63.00;;;;;;5092398;28;20111;-91
2022/04/22 14:03:46;;;;;;;4.25;1.95;;;19.50;61.50;;;;;;5073805;28;20397;-87
2022/04/22 14:06:15;;;;;;;3.58;2.42;;;19.60;63.30;;;;;;5090603;28;20507;-92
2022/04/22 14:08:43;;;;;;;5.97;2.65;;;19.80;64.00;;;;;;5073401;28;20070;-89
2022/04/22 14:11:09;;;;;;;5.13;2.55;;;19.90;63.70;;;;;;5073426;28;20032;-91
2022/04/22 14:13:35;;;;;;;3.00;2.55;;;19.60;58.70;;;;;;5072567;28;20028;-90
2022/04/22 14:16:02;;;;;;;9.85;2.65;;;19.10;56.80;;;;;;5072515;28;20074;-90
2022/04/22 14:18:48;;;;;;;7.23;2.43;;;18.80;59.10;;;;;;5072815;28;20108;-90
2022/04/22 14:21:14;;;;;;;5.63;2.25;;;18.90;60.50;;;;;;5072368;28;20028;-90